createdAt,value
2018-06-19T00:02:38.818Z,99.90
2018-06-19T00:07:23.204Z,99.90
2018-06-19T00:12:07.663Z,99.90
2018-06-19T00:16:52.215Z,99.90
2018-06-19T00:21:46.013Z,99.90
2018-06-19T00:26:30.451Z,99.90
2018-06-19T00:31:14.861Z,99.90
2018-06-19T00:36:00.339Z,99.90
2018-06-19T00:40:44.683Z,99.90
2018-06-19T00:45:29.068Z,99.90
2018-06-19T00:50:13.432Z,99.90
2018-06-19T00:54:57.794Z,99.90
2018-06-19T00:59:42.126Z,99.90
2018-06-19T01:04:26.481Z,99.90
2018-06-19T01:09:11.089Z,99.90
2018-06-19T01:13:55.590Z,99.90
2018-06-19T01:18:40.008Z,99.90
2018-06-19T01:23:24.471Z,99.90
2018-06-19T01:28:08.803Z,99.90
2018-06-19T01:32:53.192Z,99.90
2018-06-19T01:37:37.637Z,99.90
2018-06-19T01:42:22.135Z,99.90
2018-06-19T01:47:06.616Z,99.90
2018-06-19T01:51:51.071Z,99.90
2018-06-19T01:56:35.454Z,99.90
2018-06-19T02:01:19.909Z,99.90
2018-06-19T02:06:04.351Z,99.90
2018-06-19T02:10:48.793Z,99.90
2018-06-19T02:15:33.139Z,99.90
2018-06-19T02:20:17.480Z,99.90
2018-06-19T02:25:01.930Z,99.90
2018-06-19T02:29:46.350Z,99.90
2018-06-19T02:34:30.792Z,99.90
2018-06-19T02:39:15.138Z,99.90
2018-06-19T02:43:59.425Z,99.90
2018-06-19T02:48:44.804Z,99.90
2018-06-19T02:53:29.192Z,99.90
2018-06-19T02:58:13.747Z,99.90
2018-06-19T03:02:58.358Z,99.90
2018-06-19T03:07:42.809Z,99.90
2018-06-19T03:12:27.243Z,99.90
2018-06-19T03:17:11.607Z,99.90
2018-06-19T03:21:55.937Z,99.90
2018-06-19T03:26:40.394Z,99.90
2018-06-19T03:31:25.046Z,99.90
2018-06-19T03:36:09.347Z,99.90
2018-06-19T03:40:53.720Z,99.90
2018-06-19T03:45:38.204Z,99.90
2018-06-19T03:50:23.576Z,99.90
2018-06-19T03:55:08.054Z,99.90
2018-06-19T03:59:52.467Z,99.90
2018-06-19T04:04:36.842Z,99.90
2018-06-19T04:09:21.067Z,99.90
2018-06-19T04:14:05.436Z,99.90
2018-06-19T04:18:49.970Z,99.90
2018-06-19T04:23:34.648Z,99.90
2018-06-19T04:28:18.999Z,99.90
2018-06-19T04:33:03.377Z,99.90
2018-06-19T04:37:47.946Z,99.90
2018-06-19T04:42:32.363Z,99.90
2018-06-19T04:47:16.814Z,99.90
2018-06-19T04:52:02.207Z,99.90
2018-06-19T04:56:46.517Z,99.90
2018-06-19T05:01:30.932Z,99.90
2018-06-19T05:06:15.322Z,99.90
2018-06-19T05:10:59.710Z,99.90
2018-06-19T05:15:44.107Z,99.90
2018-06-19T05:20:28.491Z,99.90
2018-06-19T05:25:12.841Z,99.90
2018-06-19T05:29:57.368Z,99.90
2018-06-19T05:34:41.677Z,99.90
2018-06-19T05:39:26.092Z,99.90
2018-06-19T05:44:10.430Z,99.90
2018-06-19T05:48:54.824Z,99.90
2018-06-19T05:53:39.240Z,99.90
2018-06-19T05:58:23.720Z,99.90
2018-06-19T06:03:08.202Z,99.90
2018-06-19T06:07:52.687Z,99.90
2018-06-19T06:12:37.366Z,99.90
2018-06-19T06:17:22.037Z,99.90
2018-06-19T06:22:06.528Z,99.90
2018-06-19T06:26:51.013Z,99.90
2018-06-19T06:31:35.482Z,99.90
2018-06-19T06:36:20.096Z,99.90
2018-06-19T06:41:04.461Z,99.90
2018-06-19T06:45:48.830Z,99.90
2018-06-19T06:50:33.558Z,99.90
2018-06-19T06:55:18.510Z,99.90
2018-06-19T07:00:02.957Z,99.90
2018-06-19T07:04:47.664Z,99.90
2018-06-19T07:09:32.170Z,99.90
2018-06-19T07:14:16.542Z,99.90
2018-06-19T07:19:01.146Z,99.90
2018-06-19T07:23:45.511Z,99.90
2018-06-19T07:28:30.055Z,99.90
2018-06-19T07:33:14.535Z,99.90
2018-06-19T07:37:59.022Z,99.90
2018-06-19T07:42:43.417Z,99.90
2018-06-19T07:47:27.854Z,99.90
2018-06-19T07:52:12.467Z,99.90
2018-06-19T07:56:56.930Z,99.90
2018-06-19T08:01:41.495Z,99.90
2018-06-19T08:06:25.888Z,99.90
2018-06-19T08:11:10.322Z,99.90
2018-06-19T08:15:54.735Z,99.90
2018-06-19T08:20:39.203Z,99.90
2018-06-19T08:25:23.642Z,99.90
2018-06-19T08:30:08.155Z,99.90
2018-06-19T08:34:52.596Z,99.90
2018-06-19T08:39:37.094Z,99.90
2018-06-19T08:44:21.547Z,99.90
2018-06-19T08:49:05.935Z,99.90
2018-06-19T08:53:50.433Z,99.90
2018-06-19T08:58:35.183Z,99.90
2018-06-19T09:03:19.665Z,99.30
2018-06-19T09:08:04.095Z,99.00
2018-06-19T09:12:48.776Z,98.70
2018-06-19T09:17:33.305Z,97.80
2018-06-19T09:22:17.713Z,97.00
2018-06-19T09:27:02.133Z,96.10
2018-06-19T09:31:46.907Z,94.30
2018-06-19T09:36:31.689Z,95.30
2018-06-19T09:41:16.267Z,97.50
2018-06-19T09:46:00.733Z,97.30
2018-06-19T09:50:45.270Z,96.10
2018-06-19T09:55:29.755Z,96.10
2018-06-19T10:00:18.458Z,94.70
2018-06-19T10:05:02.945Z,97.00
2018-06-19T10:09:47.317Z,98.10
2018-06-19T10:14:31.810Z,98.50
2018-06-19T10:19:16.191Z,98.40
2018-06-19T10:24:00.687Z,95.90
2018-06-19T10:28:45.249Z,97.00
2018-06-19T10:33:29.782Z,97.80
2018-06-19T10:38:14.217Z,96.70
2018-06-19T10:42:58.895Z,96.60
2018-06-19T10:47:43.325Z,95.50
2018-06-19T10:52:27.804Z,96.00
2018-06-19T10:57:12.102Z,95.20
2018-06-19T11:01:56.493Z,94.70
2018-06-19T11:06:40.957Z,94.70
2018-06-19T11:11:25.467Z,92.60
2018-06-19T11:16:09.902Z,92.20
2018-06-19T11:20:54.388Z,89.70
2018-06-19T11:25:38.888Z,90.20
2018-06-19T11:30:23.362Z,90.10
2018-06-19T11:35:07.877Z,89.10
2018-06-19T11:39:52.258Z,90.20
2018-06-19T11:44:36.682Z,91.30
2018-06-19T11:49:21.086Z,91.80
2018-06-19T11:54:05.520Z,90.30
2018-06-19T11:58:51.622Z,85.40
2018-06-19T12:03:36.111Z,87.60
2018-06-19T12:08:20.542Z,84.40
2018-06-19T12:13:04.982Z,83.70
2018-06-19T12:17:49.723Z,83.10
2018-06-19T12:22:34.128Z,88.60
2018-06-19T12:27:18.561Z,88.10
2018-06-19T12:32:03.195Z,88.90
2018-06-19T12:36:47.741Z,90.80
2018-06-19T12:41:39.078Z,91.10
2018-06-19T12:46:23.455Z,91.80
2018-06-19T12:52:15.882Z,92.90
2018-06-19T12:57:00.258Z,93.30
2018-06-19T13:01:44.720Z,93.20
2018-06-19T13:06:35.308Z,91.50
2018-06-19T13:11:19.974Z,90.80
2018-06-19T13:16:05.566Z,88.20
2018-06-19T13:20:50.493Z,87.10
2018-06-19T13:25:34.962Z,85.80
2018-06-19T13:30:30.524Z,86.90
2018-06-19T13:35:14.857Z,87.30
2018-06-19T13:41:12.594Z,86.40
2018-06-19T13:45:57.039Z,82.10
2018-06-19T13:50:42.552Z,79.60
2018-06-19T13:57:39.986Z,78.00
2018-06-19T14:02:24.438Z,80.20
2018-06-19T14:07:09.032Z,83.30
2018-06-19T14:12:11.018Z,81.70
2018-06-19T14:16:55.431Z,80.00
2018-06-19T14:21:39.943Z,78.10
2018-06-19T14:26:24.432Z,80.90
2018-06-19T14:31:08.859Z,80.30
2018-06-19T14:35:53.479Z,78.00
2018-06-19T14:40:37.941Z,79.60
2018-06-19T14:45:22.533Z,77.80
2018-06-19T14:50:07.236Z,77.70
2018-06-19T14:54:51.579Z,75.50
2018-06-19T14:59:35.916Z,77.00
2018-06-19T15:04:20.304Z,77.10
2018-06-19T15:09:07.993Z,78.90
2018-06-19T15:13:52.615Z,75.90
2018-06-19T15:18:37.047Z,76.50
2018-06-19T15:23:21.583Z,76.20
2018-06-19T15:28:06.026Z,77.60
2018-06-19T15:32:50.395Z,76.20
2018-06-19T15:37:34.813Z,77.60
2018-06-19T15:42:19.275Z,77.90
2018-06-19T15:47:03.656Z,79.70
2018-06-19T15:51:48.091Z,82.20
2018-06-19T15:56:33.203Z,81.90
2018-06-19T16:01:17.750Z,81.40
2018-06-19T16:06:02.223Z,82.60
2018-06-19T16:10:47.939Z,83.40
2018-06-19T16:15:32.407Z,83.60
2018-06-19T16:20:16.825Z,83.90
2018-06-19T16:25:01.303Z,84.20
2018-06-19T16:29:45.882Z,85.60
2018-06-19T16:34:30.267Z,86.20
2018-06-19T16:39:14.783Z,86.80
2018-06-19T16:43:59.242Z,87.10
2018-06-19T16:48:43.881Z,88.20
2018-06-19T16:53:28.234Z,89.20
2018-06-19T16:58:12.660Z,88.90
2018-06-19T17:02:57.124Z,89.90
2018-06-19T17:07:42.732Z,91.20
2018-06-19T17:12:27.194Z,90.60
2018-06-19T17:17:11.672Z,91.20
2018-06-19T17:21:56.108Z,91.00
2018-06-19T17:26:40.578Z,91.10
2018-06-19T17:31:25.078Z,91.60
2018-06-19T17:36:09.464Z,91.70
2018-06-19T17:41:02.543Z,92.00
2018-06-19T17:45:47.322Z,92.00
2018-06-19T17:50:31.828Z,92.70
2018-06-19T17:55:18.562Z,92.60
2018-06-19T18:00:04.327Z,93.20
2018-06-19T18:04:48.891Z,93.20
2018-06-19T18:09:33.688Z,93.10
2018-06-19T18:14:18.706Z,93.50
2018-06-19T18:19:03.571Z,93.50
2018-06-19T18:23:48.341Z,94.30
2018-06-19T18:28:33.186Z,94.50
2018-06-19T18:33:20.731Z,94.90
2018-06-19T18:38:07.187Z,94.70
2018-06-19T18:42:53.450Z,95.10
2018-06-19T18:47:44.165Z,95.60
2018-06-19T18:52:29.048Z,96.40
2018-06-19T18:57:14.378Z,97.00
2018-06-19T19:01:59.052Z,97.40
2018-06-19T19:06:43.648Z,98.00
2018-06-19T19:11:28.227Z,98.10
2018-06-19T19:16:17.891Z,98.60
2018-06-19T19:21:02.727Z,99.20
2018-06-19T19:25:49.042Z,99.90
2018-06-19T19:30:34.027Z,99.90
2018-06-19T19:35:19.263Z,99.90
2018-06-19T19:40:06.531Z,99.90
2018-06-19T19:44:53.532Z,99.90
2018-06-19T19:49:38.553Z,99.90
2018-06-19T19:54:24.276Z,99.90
2018-06-19T19:59:10.545Z,99.90
2018-06-19T20:03:55.313Z,99.90
2018-06-19T20:08:39.987Z,99.90
2018-06-19T20:13:24.702Z,99.90
2018-06-19T20:18:10.104Z,99.90
2018-06-19T20:22:54.871Z,99.90
2018-06-19T20:27:39.955Z,99.90
2018-06-19T20:32:24.861Z,99.90
2018-06-19T20:37:09.846Z,99.90
2018-06-19T20:41:54.924Z,99.90
2018-06-19T20:46:40.793Z,99.90
2018-06-19T20:51:27.149Z,99.90
2018-06-19T20:56:12.113Z,99.90
2018-06-19T21:00:57.011Z,99.90
2018-06-19T21:05:41.908Z,99.90
2018-06-19T21:10:26.946Z,99.90
2018-06-19T21:15:11.491Z,99.90
2018-06-19T21:19:56.319Z,99.90
2018-06-19T21:24:40.926Z,99.90
2018-06-19T21:29:25.691Z,99.90
2018-06-19T21:34:10.065Z,99.90
2018-06-19T21:38:54.534Z,99.90
2018-06-19T21:43:39.088Z,99.90
2018-06-19T21:48:23.489Z,99.90
2018-06-19T21:53:08.046Z,99.90
2018-06-19T21:57:52.578Z,99.90
2018-06-19T22:02:36.959Z,99.90
2018-06-19T22:07:21.434Z,99.90
2018-06-19T22:12:06.095Z,99.90
2018-06-19T22:16:50.487Z,99.90
2018-06-19T22:21:34.934Z,99.90
2018-06-19T22:26:19.314Z,99.90
2018-06-19T22:31:03.688Z,99.90
2018-06-19T22:35:48.211Z,99.90
2018-06-19T22:40:32.754Z,99.90
2018-06-19T22:45:17.190Z,99.90
2018-06-19T22:50:01.705Z,99.90
2018-06-19T22:54:46.170Z,99.90
2018-06-19T22:59:30.621Z,99.90
2018-06-19T23:04:15.040Z,99.90
2018-06-19T23:08:59.434Z,99.90
2018-06-19T23:13:44.032Z,99.90
2018-06-19T23:18:28.390Z,99.90
2018-06-19T23:23:13.699Z,99.90
2018-06-19T23:27:58.107Z,99.90
2018-06-19T23:32:42.486Z,99.90
2018-06-19T23:37:26.888Z,99.90
2018-06-19T23:42:11.192Z,99.90
2018-06-19T23:46:56.146Z,99.90
2018-06-19T23:51:40.502Z,99.90
2018-06-19T23:56:24.974Z,99.90
